sensor_id;sensor_type;location;lat;lon;timestamp;P1;durP1;ratioP1;P2;durP2;ratioP2
5604;SDS011;9297;47.258;11.362;2024-03-29T00:00:50;6.57;;;5.97;;
5604;SDS011;9297;47.258;11.362;2024-03-29T00:03:19;4.13;;;3.83;;
5604;SDS011;9297;47.258;11.362;2024-03-29T00:05:47;4.90;;;4.50;;
5604;SDS011;9297;47.258;11.362;2024-03-29T00:08:33;6.17;;;3.90;;
5604;SDS011;9297;47.258;11.362;2024-03-29T00:11:00;4.23;;;3.83;;
5604;SDS011;9297;47.258;11.362;2024-03-29T00:13:26;5.57;;;4.07;;
5604;SDS011;9297;47.258;11.362;2024-03-29T00:16:00;3.63;;;3.33;;
5604;SDS011;9297;47.258;11.362;2024-03-29T00:18:40;3.47;;;3.17;;
5604;SDS011;9297;47.258;11.362;2024-03-29T00:21:10;3.50;;;3.30;;
5604;SDS011;9297;47.258;11.362;2024-03-29T00:23:36;4.47;;;4.07;;
5604;SDS011;9297;47.258;11.362;2024-03-29T00:26:02;4.20;;;3.83;;
5604;SDS011;9297;47.258;11.362;2024-03-29T00:28:29;4.10;;;3.80;;
5604;SDS011;9297;47.258;11.362;2024-03-29T00:31:00;3.70;;;3.50;;
5604;SDS011;9297;47.258;11.362;2024-03-29T00:33:26;3.90;;;3.70;;
5604;SDS011;9297;47.258;11.362;2024-03-29T00:35:52;4.53;;;4.17;;
5604;SDS011;9297;47.258;11.362;2024-03-29T00:38:19;5.00;;;4.50;;
5604;SDS011;9297;47.258;11.362;2024-03-29T00:40:45;5.73;;;5.23;;
5604;SDS011;9297;47.258;11.362;2024-03-29T00:43:12;5.33;;;4.87;;
5604;SDS011;9297;47.258;11.362;2024-03-29T00:45:38;5.17;;;4.77;;
5604;SDS011;9297;47.258;11.362;2024-03-29T00:48:04;4.80;;;4.40;;
5604;SDS011;9297;47.258;11.362;2024-03-29T00:50:31;4.80;;;4.40;;
5604;SDS011;9297;47.258;11.362;2024-03-29T00:52:57;4.80;;;4.47;;
5604;SDS011;9297;47.258;11.362;2024-03-29T00:55:24;4.00;;;3.70;;
5604;SDS011;9297;47.258;11.362;2024-03-29T01:00:42;4.07;;;3.77;;
5604;SDS011;9297;47.258;11.362;2024-03-29T01:03:10;3.77;;;3.47;;
5604;SDS011;9297;47.258;11.362;2024-03-29T01:05:36;3.80;;;3.50;;
5604;SDS011;9297;47.258;11.362;2024-03-29T01:11:07;4.50;;;4.20;;
5604;SDS011;9297;47.258;11.362;2024-03-29T01:13:33;4.07;;;3.80;;
5604;SDS011;9297;47.258;11.362;2024-03-29T01:15:59;4.00;;;3.70;;
5604;SDS011;9297;47.258;11.362;2024-03-29T01:18:25;4.10;;;3.80;;
5604;SDS011;9297;47.258;11.362;2024-03-29T01:20:51;5.07;;;4.67;;
5604;SDS011;9297;47.258;11.362;2024-03-29T01:23:18;4.23;;;3.93;;
5604;SDS011;9297;47.258;11.362;2024-03-29T01:25:48;4.83;;;4.43;;
5604;SDS011;9297;47.258;11.362;2024-03-29T01:28:17;4.77;;;4.47;;
5604;SDS011;9297;47.258;11.362;2024-03-29T01:30:43;4.20;;;4.00;;
5604;SDS011;9297;47.258;11.362;2024-03-29T01:33:16;4.60;;;4.30;;
5604;SDS011;9297;47.258;11.362;2024-03-29T01:35:42;4.20;;;3.90;;
5604;SDS011;9297;47.258;11.362;2024-03-29T01:38:09;4.40;;;4.10;;
5604;SDS011;9297;47.258;11.362;2024-03-29T01:40:35;4.17;;;3.87;;
5604;SDS011;9297;47.258;11.362;2024-03-29T01:43:04;4.53;;;4.13;;
5604;SDS011;9297;47.258;11.362;2024-03-29T01:45:36;3.60;;;3.40;;
5604;SDS011;9297;47.258;11.362;2024-03-29T01:48:07;3.90;;;3.70;;
5604;SDS011;9297;47.258;11.362;2024-03-29T01:50:37;5.33;;;4.93;;
5604;SDS011;9297;47.258;11.362;2024-03-29T01:53:05;4.80;;;4.50;;
5604;SDS011;9297;47.258;11.362;2024-03-29T01:55:35;4.43;;;4.03;;
5604;SDS011;9297;47.258;11.362;2024-03-29T01:58:03;4.27;;;3.97;;
5604;SDS011;9297;47.258;11.362;2024-03-29T02:00:30;4.00;;;3.80;;
5604;SDS011;9297;47.258;11.362;2024-03-29T02:02:59;4.60;;;4.30;;
5604;SDS011;9297;47.258;11.362;2024-03-29T02:05:27;4.90;;;4.60;;
5604;SDS011;9297;47.258;11.362;2024-03-29T02:07:56;4.60;;;4.30;;
5604;SDS011;9297;47.258;11.362;2024-03-29T02:10:22;4.37;;;4.00;;
5604;SDS011;9297;47.258;11.362;2024-03-29T02:12:48;4.57;;;4.27;;
5604;SDS011;9297;47.258;11.362;2024-03-29T02:15:14;4.87;;;4.47;;
5604;SDS011;9297;47.258;11.362;2024-03-29T02:17:40;4.73;;;4.43;;
5604;SDS011;9297;47.258;11.362;2024-03-29T02:20:14;5.13;;;4.80;;
5604;SDS011;9297;47.258;11.362;2024-03-29T02:22:41;4.37;;;3.97;;
5604;SDS011;9297;47.258;11.362;2024-03-29T02:25:13;4.33;;;3.97;;
5604;SDS011;9297;47.258;11.362;2024-03-29T02:27:40;4.17;;;3.97;;
5604;SDS011;9297;47.258;11.362;2024-03-29T02:30:07;4.83;;;4.53;;
5604;SDS011;9297;47.258;11.362;2024-03-29T02:32:33;4.57;;;4.27;;
5604;SDS011;9297;47.258;11.362;2024-03-29T02:35:02;5.23;;;4.77;;
5604;SDS011;9297;47.258;11.362;2024-03-29T02:37:29;5.83;;;5.33;;
5604;SDS011;9297;47.258;11.362;2024-03-29T02:39:57;6.07;;;5.57;;
5604;SDS011;9297;47.258;11.362;2024-03-29T02:42:25;5.70;;;5.20;;
5604;SDS011;9297;47.258;11.362;2024-03-29T02:44:51;5.83;;;5.43;;
5604;SDS011;9297;47.258;11.362;2024-03-29T02:47:17;6.20;;;5.70;;
5604;SDS011;9297;47.258;11.362;2024-03-29T02:49:43;4.97;;;4.67;;
5604;SDS011;9297;47.258;11.362;2024-03-29T02:52:09;4.90;;;4.60;;
5604;SDS011;9297;47.258;11.362;2024-03-29T02:54:35;4.70;;;4.30;;
5604;SDS011;9297;47.258;11.362;2024-03-29T02:57:02;4.83;;;4.53;;
5604;SDS011;9297;47.258;11.362;2024-03-29T02:59:29;5.07;;;4.67;;
5604;SDS011;9297;47.258;11.362;2024-03-29T03:01:56;4.23;;;3.93;;
5604;SDS011;9297;47.258;11.362;2024-03-29T03:04:22;5.00;;;4.60;;
5604;SDS011;9297;47.258;11.362;2024-03-29T03:06:48;4.70;;;4.40;;
5604;SDS011;9297;47.258;11.362;2024-03-29T03:09:14;4.13;;;3.83;;
5604;SDS011;9297;47.258;11.362;2024-03-29T03:11:41;4.40;;;4.10;;
5604;SDS011;9297;47.258;11.362;2024-03-29T03:14:07;4.00;;;3.80;;
5604;SDS011;9297;47.258;11.362;2024-03-29T03:16:35;4.67;;;4.37;;
5604;SDS011;9297;47.258;11.362;2024-03-29T03:19:01;4.80;;;4.50;;
5604;SDS011;9297;47.258;11.362;2024-03-29T03:21:27;5.40;;;5.00;;
5604;SDS011;9297;47.258;11.362;2024-03-29T03:24:04;4.93;;;4.60;;
5604;SDS011;9297;47.258;11.362;2024-03-29T03:26:30;6.40;;;5.90;;
5604;SDS011;9297;47.258;11.362;2024-03-29T03:28:57;6.60;;;6.10;;
5604;SDS011;9297;47.258;11.362;2024-03-29T03:31:23;6.33;;;5.83;;
5604;SDS011;9297;47.258;11.362;2024-03-29T03:33:50;7.40;;;6.70;;
5604;SDS011;9297;47.258;11.362;2024-03-29T03:36:17;8.07;;;7.27;;
5604;SDS011;9297;47.258;11.362;2024-03-29T03:38:51;8.17;;;7.37;;
5604;SDS011;9297;47.258;11.362;2024-03-29T03:41:20;8.67;;;7.80;;
5604;SDS011;9297;47.258;11.362;2024-03-29T03:43:49;9.40;;;8.40;;
5604;SDS011;9297;47.258;11.362;2024-03-29T03:46:15;10.53;;;8.47;;
5604;SDS011;9297;47.258;11.362;2024-03-29T03:48:41;9.50;;;8.57;;
5604;SDS011;9297;47.258;11.362;2024-03-29T03:51:09;9.53;;;8.53;;
5604;SDS011;9297;47.258;11.362;2024-03-29T03:53:37;8.63;;;7.73;;
5604;SDS011;9297;47.258;11.362;2024-03-29T03:56:04;9.73;;;7.77;;
5604;SDS011;9297;47.258;11.362;2024-03-29T03:58:30;9.03;;;7.97;;
5604;SDS011;9297;47.258;11.362;2024-03-29T04:00:56;8.83;;;7.93;;
5604;SDS011;9297;47.258;11.362;2024-03-29T04:03:22;8.47;;;7.67;;
5604;SDS011;9297;47.258;11.362;2024-03-29T04:05:48;8.80;;;7.67;;
5604;SDS011;9297;47.258;11.362;2024-03-29T04:08:19;9.77;;;8.33;;
5604;SDS011;9297;47.258;11.362;2024-03-29T04:10:47;8.60;;;7.80;;
5604;SDS011;9297;47.258;11.362;2024-03-29T04:13:13;8.80;;;7.90;;
5604;SDS011;9297;47.258;11.362;2024-03-29T04:15:42;8.90;;;8.00;;
5604;SDS011;9297;47.258;11.362;2024-03-29T04:18:11;8.80;;;7.93;;
5604;SDS011;9297;47.258;11.362;2024-03-29T04:20:37;9.50;;;8.43;;
5604;SDS011;9297;47.258;11.362;2024-03-29T04:23:03;9.77;;;8.77;;
5604;SDS011;9297;47.258;11.362;2024-03-29T04:25:31;9.67;;;8.60;;
5604;SDS011;9297;47.258;11.362;2024-03-29T04:27:58;9.37;;;8.37;;
5604;SDS011;9297;47.258;11.362;2024-03-29T04:30:24;10.87;;;9.53;;
5604;SDS011;9297;47.258;11.362;2024-03-29T04:32:50;11.17;;;9.87;;
5604;SDS011;9297;47.258;11.362;2024-03-29T04:35:17;10.37;;;8.90;;
5604;SDS011;9297;47.258;11.362;2024-03-29T04:37:43;12.47;;;9.53;;
5604;SDS011;9297;47.258;11.362;2024-03-29T04:40:10;10.33;;;9.23;;
5604;SDS011;9297;47.258;11.362;2024-03-29T04:42:37;9.93;;;8.50;;
5604;SDS011;9297;47.258;11.362;2024-03-29T04:45:04;10.30;;;9.17;;
5604;SDS011;9297;47.258;11.362;2024-03-29T04:47:31;10.37;;;9.33;;
5604;SDS011;9297;47.258;11.362;2024-03-29T04:49:57;10.77;;;8.77;;
5604;SDS011;9297;47.258;11.362;2024-03-29T04:52:25;11.27;;;10.07;;
5604;SDS011;9297;47.258;11.362;2024-03-29T04:54:51;10.30;;;8.90;;
5604;SDS011;9297;47.258;11.362;2024-03-29T04:57:17;9.67;;;8.70;;
5604;SDS011;9297;47.258;11.362;2024-03-29T04:59:45;10.57;;;9.13;;
5604;SDS011;9297;47.258;11.362;2024-03-29T05:02:11;11.00;;;8.87;;
5604;SDS011;9297;47.258;11.362;2024-03-29T05:04:37;9.90;;;8.90;;
5604;SDS011;9297;47.258;11.362;2024-03-29T05:07:04;10.20;;;9.10;;
5604;SDS011;9297;47.258;11.362;2024-03-29T05:09:30;10.00;;;8.93;;
5604;SDS011;9297;47.258;11.362;2024-03-29T05:11:56;9.73;;;8.83;;
5604;SDS011;9297;47.258;11.362;2024-03-29T05:14:22;12.23;;;9.53;;
5604;SDS011;9297;47.258;11.362;2024-03-29T05:16:50;9.90;;;8.90;;
5604;SDS011;9297;47.258;11.362;2024-03-29T05:21:57;13.60;;;10.10;;
5604;SDS011;9297;47.258;11.362;2024-03-29T05:24:23;11.83;;;9.73;;
5604;SDS011;9297;47.258;11.362;2024-03-29T05:26:49;9.97;;;8.43;;
5604;SDS011;9297;47.258;11.362;2024-03-29T05:29:16;11.23;;;9.97;;
5604;SDS011;9297;47.258;11.362;2024-03-29T05:31:42;10.37;;;9.03;;
5604;SDS011;9297;47.258;11.362;2024-03-29T05:34:09;11.77;;;10.00;;
5604;SDS011;9297;47.258;11.362;2024-03-29T05:36:35;12.30;;;10.10;;
5604;SDS011;9297;47.258;11.362;2024-03-29T05:39:04;12.37;;;9.50;;
5604;SDS011;9297;47.258;11.362;2024-03-29T05:41:31;10.80;;;9.60;;
5604;SDS011;9297;47.258;11.362;2024-03-29T05:44:00;10.17;;;9.00;;
5604;SDS011;9297;47.258;11.362;2024-03-29T05:46:26;10.00;;;8.97;;
5604;SDS011;9297;47.258;11.362;2024-03-29T05:48:53;9.77;;;8.77;;
5604;SDS011;9297;47.258;11.362;2024-03-29T05:51:20;9.60;;;8.60;;
5604;SDS011;9297;47.258;11.362;2024-03-29T05:53:46;11.30;;;9.27;;
5604;SDS011;9297;47.258;11.362;2024-03-29T06:16:47;10.50;;;8.80;;
5604;SDS011;9297;47.258;11.362;2024-03-29T06:19:15;8.87;;;7.97;;
5604;SDS011;9297;47.258;11.362;2024-03-29T06:21:41;9.00;;;8.10;;
5604;SDS011;9297;47.258;11.362;2024-03-29T06:24:08;9.07;;;8.17;;
5604;SDS011;9297;47.258;11.362;2024-03-29T06:26:35;8.00;;;7.23;;
5604;SDS011;9297;47.258;11.362;2024-03-29T06:29:01;9.20;;;8.30;;
5604;SDS011;9297;47.258;11.362;2024-03-29T06:31:29;8.17;;;7.37;;
5604;SDS011;9297;47.258;11.362;2024-03-29T06:33:55;9.10;;;8.20;;
5604;SDS011;9297;47.258;11.362;2024-03-29T06:36:24;8.00;;;7.20;;
5604;SDS011;9297;47.258;11.362;2024-03-29T06:38:50;8.97;;;8.07;;
5604;SDS011;9297;47.258;11.362;2024-03-29T06:41:16;8.57;;;7.77;;
5604;SDS011;9297;47.258;11.362;2024-03-29T06:43:42;8.70;;;7.80;;
5604;SDS011;9297;47.258;11.362;2024-03-29T06:46:11;9.03;;;8.13;;
5604;SDS011;9297;47.258;11.362;2024-03-29T06:48:40;9.17;;;8.27;;
5604;SDS011;9297;47.258;11.362;2024-03-29T06:51:07;9.47;;;8.57;;
5604;SDS011;9297;47.258;11.362;2024-03-29T06:53:33;9.77;;;8.77;;
5604;SDS011;9297;47.258;11.362;2024-03-29T06:55:59;10.50;;;9.40;;
5604;SDS011;9297;47.258;11.362;2024-03-29T06:58:26;10.47;;;9.00;;
5604;SDS011;9297;47.258;11.362;2024-03-29T07:00:55;9.63;;;8.17;;
5604;SDS011;9297;47.258;11.362;2024-03-29T07:03:21;9.33;;;8.33;;
5604;SDS011;9297;47.258;11.362;2024-03-29T07:05:48;9.13;;;8.23;;
5604;SDS011;9297;47.258;11.362;2024-03-29T07:08:15;9.80;;;8.73;;
5604;SDS011;9297;47.258;11.362;2024-03-29T07:10:42;9.20;;;8.20;;
5604;SDS011;9297;47.258;11.362;2024-03-29T07:13:08;9.33;;;8.43;;
5604;SDS011;9297;47.258;11.362;2024-03-29T07:18:16;8.93;;;8.03;;
5604;SDS011;9297;47.258;11.362;2024-03-29T07:20:45;8.03;;;7.03;;
5604;SDS011;9297;47.258;11.362;2024-03-29T07:23:12;7.40;;;6.70;;
5604;SDS011;9297;47.258;11.362;2024-03-29T07:25:38;8.20;;;7.40;;
5604;SDS011;9297;47.258;11.362;2024-03-29T07:28:05;7.77;;;7.07;;
5604;SDS011;9297;47.258;11.362;2024-03-29T07:30:31;8.93;;;7.37;;
5604;SDS011;9297;47.258;11.362;2024-03-29T07:32:57;8.50;;;7.60;;
5604;SDS011;9297;47.258;11.362;2024-03-29T07:35:23;8.13;;;7.33;;
5604;SDS011;9297;47.258;11.362;2024-03-29T07:37:49;10.23;;;7.30;;
5604;SDS011;9297;47.258;11.362;2024-03-29T07:40:19;8.40;;;7.60;;
5604;SDS011;9297;47.258;11.362;2024-03-29T07:42:46;7.77;;;6.97;;
5604;SDS011;9297;47.258;11.362;2024-03-29T07:45:12;7.63;;;6.83;;
5604;SDS011;9297;47.258;11.362;2024-03-29T07:47:38;6.90;;;6.30;;
5604;SDS011;9297;47.258;11.362;2024-03-29T07:52:44;6.43;;;5.90;;
5604;SDS011;9297;47.258;11.362;2024-03-29T07:55:19;6.20;;;5.70;;
5604;SDS011;9297;47.258;11.362;2024-03-29T07:57:45;6.23;;;5.63;;
5604;SDS011;9297;47.258;11.362;2024-03-29T08:00:11;6.20;;;5.70;;
5604;SDS011;9297;47.258;11.362;2024-03-29T08:02:38;5.93;;;5.43;;
5604;SDS011;9297;47.258;11.362;2024-03-29T08:05:05;5.30;;;4.90;;
5604;SDS011;9297;47.258;11.362;2024-03-29T08:07:31;5.60;;;4.47;;
5604;SDS011;9297;47.258;11.362;2024-03-29T08:09:57;5.10;;;4.70;;
5604;SDS011;9297;47.258;11.362;2024-03-29T08:12:27;5.73;;;5.23;;
5604;SDS011;9297;47.258;11.362;2024-03-29T08:14:56;4.50;;;4.17;;
5604;SDS011;9297;47.258;11.362;2024-03-29T08:17:25;4.80;;;4.43;;
5604;SDS011;9297;47.258;11.362;2024-03-29T08:30:58;1.53;;;1.40;;
5604;SDS011;9297;47.258;11.362;2024-03-29T08:33:24;2.07;;;1.97;;
5604;SDS011;9297;47.258;11.362;2024-03-29T08:35:50;1.70;;;1.70;;
5604;SDS011;9297;47.258;11.362;2024-03-29T08:38:16;1.83;;;1.70;;
5604;SDS011;9297;47.258;11.362;2024-03-29T08:40:42;1.83;;;1.27;;
5604;SDS011;9297;47.258;11.362;2024-03-29T08:43:08;1.43;;;1.43;;
5604;SDS011;9297;47.258;11.362;2024-03-29T08:45:34;1.20;;;1.20;;
5604;SDS011;9297;47.258;11.362;2024-03-29T08:48:01;1.70;;;1.60;;
5604;SDS011;9297;47.258;11.362;2024-03-29T08:50:27;2.10;;;1.40;;
5604;SDS011;9297;47.258;11.362;2024-03-29T08:52:53;1.73;;;1.70;;
5604;SDS011;9297;47.258;11.362;2024-03-29T08:55:19;1.90;;;1.20;;
5604;SDS011;9297;47.258;11.362;2024-03-29T08:57:45;1.77;;;1.70;;
5604;SDS011;9297;47.258;11.362;2024-03-29T09:00:12;2.87;;;1.60;;
5604;SDS011;9297;47.258;11.362;2024-03-29T09:02:38;1.23;;;1.20;;
5604;SDS011;9297;47.258;11.362;2024-03-29T09:05:06;1.40;;;1.30;;
5604;SDS011;9297;47.258;11.362;2024-03-29T09:07:32;1.37;;;1.27;;
5604;SDS011;9297;47.258;11.362;2024-03-29T09:09:59;1.67;;;1.50;;
5604;SDS011;9297;47.258;11.362;2024-03-29T09:12:25;2.73;;;1.43;;
5604;SDS011;9297;47.258;11.362;2024-03-29T09:14:51;1.57;;;1.40;;
5604;SDS011;9297;47.258;11.362;2024-03-29T09:17:16;2.27;;;2.17;;
5604;SDS011;9297;47.258;11.362;2024-03-29T09:19:42;3.80;;;1.73;;
5604;SDS011;9297;47.258;11.362;2024-03-29T09:22:10;1.53;;;1.43;;
5604;SDS011;9297;47.258;11.362;2024-03-29T09:24:36;1.33;;;1.00;;
5604;SDS011;9297;47.258;11.362;2024-03-29T09:27:02;1.27;;;1.20;;
5604;SDS011;9297;47.258;11.362;2024-03-29T09:29:28;2.10;;;1.40;;
5604;SDS011;9297;47.258;11.362;2024-03-29T09:31:54;1.17;;;1.17;;
5604;SDS011;9297;47.258;11.362;2024-03-29T09:34:20;1.77;;;1.57;;
5604;SDS011;9297;47.258;11.362;2024-03-29T09:36:46;1.40;;;1.40;;
5604;SDS011;9297;47.258;11.362;2024-03-29T09:39:13;1.17;;;1.10;;
5604;SDS011;9297;47.258;11.362;2024-03-29T09:41:39;1.10;;;1.00;;
5604;SDS011;9297;47.258;11.362;2024-03-29T09:44:08;2.27;;;1.27;;
5604;SDS011;9297;47.258;11.362;2024-03-29T09:46:34;1.00;;;1.00;;
5604;SDS011;9297;47.258;11.362;2024-03-29T09:49:01;0.83;;;0.83;;
5604;SDS011;9297;47.258;11.362;2024-03-29T09:51:28;0.93;;;0.93;;
5604;SDS011;9297;47.258;11.362;2024-03-29T09:53:55;0.90;;;0.90;;
5604;SDS011;9297;47.258;11.362;2024-03-29T09:56:26;1.93;;;1.20;;
5604;SDS011;9297;47.258;11.362;2024-03-29T09:58:52;1.33;;;1.23;;
5604;SDS011;9297;47.258;11.362;2024-03-29T10:01:18;1.17;;;1.07;;
5604;SDS011;9297;47.258;11.362;2024-03-29T10:03:47;0.87;;;0.87;;
5604;SDS011;9297;47.258;11.362;2024-03-29T10:06:15;0.83;;;0.80;;
5604;SDS011;9297;47.258;11.362;2024-03-29T10:08:42;0.90;;;0.90;;
5604;SDS011;9297;47.258;11.362;2024-03-29T10:11:08;0.80;;;0.80;;
5604;SDS011;9297;47.258;11.362;2024-03-29T10:13:35;0.93;;;0.90;;
5604;SDS011;9297;47.258;11.362;2024-03-29T10:16:04;0.80;;;0.80;;
5604;SDS011;9297;47.258;11.362;2024-03-29T10:18:33;0.70;;;0.70;;
5604;SDS011;9297;47.258;11.362;2024-03-29T10:20:59;1.00;;;1.00;;
5604;SDS011;9297;47.258;11.362;2024-03-29T10:23:25;0.77;;;0.77;;
5604;SDS011;9297;47.258;11.362;2024-03-29T10:25:51;2.63;;;0.80;;
5604;SDS011;9297;47.258;11.362;2024-03-29T10:28:18;1.17;;;0.70;;
5604;SDS011;9297;47.258;11.362;2024-03-29T10:30:46;0.60;;;0.60;;
5604;SDS011;9297;47.258;11.362;2024-03-29T10:33:12;0.80;;;0.80;;
5604;SDS011;9297;47.258;11.362;2024-03-29T10:35:41;0.70;;;0.70;;
5604;SDS011;9297;47.258;11.362;2024-03-29T10:38:06;1.93;;;0.70;;
5604;SDS011;9297;47.258;11.362;2024-03-29T10:40:34;1.00;;;0.70;;
5604;SDS011;9297;47.258;11.362;2024-03-29T10:43:01;0.60;;;0.60;;
5604;SDS011;9297;47.258;11.362;2024-03-29T10:45:27;0.87;;;0.73;;
5604;SDS011;9297;47.258;11.362;2024-03-29T10:47:56;0.70;;;0.70;;
5604;SDS011;9297;47.258;11.362;2024-03-29T10:50:23;1.03;;;1.00;;
5604;SDS011;9297;47.258;11.362;2024-03-29T10:52:51;1.00;;;1.00;;
5604;SDS011;9297;47.258;11.362;2024-03-29T10:55:18;0.90;;;0.90;;
5604;SDS011;9297;47.258;11.362;2024-03-29T10:57:46;0.83;;;0.83;;
5604;SDS011;9297;47.258;11.362;2024-03-29T11:00:17;0.70;;;0.70;;
5604;SDS011;9297;47.258;11.362;2024-03-29T11:02:46;0.80;;;0.80;;
5604;SDS011;9297;47.258;11.362;2024-03-29T11:05:16;0.83;;;0.83;;
5604;SDS011;9297;47.258;11.362;2024-03-29T11:07:42;0.60;;;0.60;;
5604;SDS011;9297;47.258;11.362;2024-03-29T11:10:11;0.60;;;0.60;;
5604;SDS011;9297;47.258;11.362;2024-03-29T11:12:41;0.80;;;0.80;;
5604;SDS011;9297;47.258;11.362;2024-03-29T11:15:27;0.87;;;0.87;;
5604;SDS011;9297;47.258;11.362;2024-03-29T11:17:54;0.60;;;0.60;;
5604;SDS011;9297;47.258;11.362;2024-03-29T11:20:21;0.70;;;0.70;;
5604;SDS011;9297;47.258;11.362;2024-03-29T11:22:49;0.70;;;0.70;;
5604;SDS011;9297;47.258;11.362;2024-03-29T11:25:15;0.80;;;0.80;;
5604;SDS011;9297;47.258;11.362;2024-03-29T11:27:41;0.83;;;0.83;;
5604;SDS011;9297;47.258;11.362;2024-03-29T11:30:07;0.70;;;0.70;;
5604;SDS011;9297;47.258;11.362;2024-03-29T11:32:34;0.70;;;0.70;;
5604;SDS011;9297;47.258;11.362;2024-03-29T11:35:01;0.70;;;0.70;;
5604;SDS011;9297;47.258;11.362;2024-03-29T11:37:30;0.60;;;0.60;;
5604;SDS011;9297;47.258;11.362;2024-03-29T11:39:58;0.97;;;0.63;;
5604;SDS011;9297;47.258;11.362;2024-03-29T11:42:35;0.60;;;0.60;;
5604;SDS011;9297;47.258;11.362;2024-03-29T11:45:02;0.80;;;0.80;;
5604;SDS011;9297;47.258;11.362;2024-03-29T11:47:28;0.80;;;0.80;;
5604;SDS011;9297;47.258;11.362;2024-03-29T11:49:55;0.70;;;0.70;;
5604;SDS011;9297;47.258;11.362;2024-03-29T11:52:21;0.60;;;0.60;;
5604;SDS011;9297;47.258;11.362;2024-03-29T11:54:49;0.60;;;0.60;;
5604;SDS011;9297;47.258;11.362;2024-03-29T11:57:14;0.60;;;0.60;;
5604;SDS011;9297;47.258;11.362;2024-03-29T11:59:40;0.70;;;0.70;;
5604;SDS011;9297;47.258;11.362;2024-03-29T12:02:06;3.20;;;0.90;;
5604;SDS011;9297;47.258;11.362;2024-03-29T12:04:39;1.63;;;0.60;;
5604;SDS011;9297;47.258;11.362;2024-03-29T12:07:05;0.63;;;0.63;;
5604;SDS011;9297;47.258;11.362;2024-03-29T12:09:31;0.60;;;0.60;;
5604;SDS011;9297;47.258;11.362;2024-03-29T12:11:59;0.60;;;0.60;;
5604;SDS011;9297;47.258;11.362;2024-03-29T12:14:25;0.60;;;0.60;;
5604;SDS011;9297;47.258;11.362;2024-03-29T12:16:50;0.60;;;0.60;;
5604;SDS011;9297;47.258;11.362;2024-03-29T12:19:22;0.50;;;0.50;;
5604;SDS011;9297;47.258;11.362;2024-03-29T12:21:49;0.67;;;0.67;;
5604;SDS011;9297;47.258;11.362;2024-03-29T12:24:16;1.70;;;0.60;;
5604;SDS011;9297;47.258;11.362;2024-03-29T12:26:42;0.60;;;0.60;;
5604;SDS011;9297;47.258;11.362;2024-03-29T12:29:09;0.50;;;0.50;;
5604;SDS011;9297;47.258;11.362;2024-03-29T12:31:35;0.70;;;0.70;;
5604;SDS011;9297;47.258;11.362;2024-03-29T12:34:01;0.60;;;0.60;;
5604;SDS011;9297;47.258;11.362;2024-03-29T12:36:27;0.83;;;0.83;;
5604;SDS011;9297;47.258;11.362;2024-03-29T12:38:54;0.70;;;0.70;;
5604;SDS011;9297;47.258;11.362;2024-03-29T12:41:20;1.53;;;0.67;;
5604;SDS011;9297;47.258;11.362;2024-03-29T12:43:49;0.70;;;0.70;;
5604;SDS011;9297;47.258;11.362;2024-03-29T12:46:16;0.60;;;0.60;;
5604;SDS011;9297;47.258;11.362;2024-03-29T12:48:43;0.80;;;0.80;;
5604;SDS011;9297;47.258;11.362;2024-03-29T12:51:09;0.97;;;0.97;;
5604;SDS011;9297;47.258;11.362;2024-03-29T12:53:37;0.73;;;0.73;;
5604;SDS011;9297;47.258;11.362;2024-03-29T12:56:04;0.80;;;0.80;;
5604;SDS011;9297;47.258;11.362;2024-03-29T12:58:31;0.60;;;0.60;;
5604;SDS011;9297;47.258;11.362;2024-03-29T13:00:57;0.70;;;0.70;;
5604;SDS011;9297;47.258;11.362;2024-03-29T13:03:24;0.50;;;0.50;;
5604;SDS011;9297;47.258;11.362;2024-03-29T13:05:50;2.67;;;0.77;;
5604;SDS011;9297;47.258;11.362;2024-03-29T13:08:16;1.43;;;0.57;;
5604;SDS011;9297;47.258;11.362;2024-03-29T13:10:42;0.60;;;0.60;;
5604;SDS011;9297;47.258;11.362;2024-03-29T13:13:09;0.60;;;0.60;;
5604;SDS011;9297;47.258;11.362;2024-03-29T13:15:36;0.67;;;0.67;;
5604;SDS011;9297;47.258;11.362;2024-03-29T13:18:03;0.60;;;0.60;;
5604;SDS011;9297;47.258;11.362;2024-03-29T13:20:32;0.87;;;0.87;;
5604;SDS011;9297;47.258;11.362;2024-03-29T13:23:02;0.60;;;0.60;;
5604;SDS011;9297;47.258;11.362;2024-03-29T13:25:28;0.60;;;0.60;;
5604;SDS011;9297;47.258;11.362;2024-03-29T13:27:54;0.70;;;0.70;;
5604;SDS011;9297;47.258;11.362;2024-03-29T13:30:20;0.70;;;0.70;;
5604;SDS011;9297;47.258;11.362;2024-03-29T13:32:47;0.60;;;0.60;;
5604;SDS011;9297;47.258;11.362;2024-03-29T13:35:14;0.60;;;0.60;;
5604;SDS011;9297;47.258;11.362;2024-03-29T13:37:42;0.60;;;0.60;;
5604;SDS011;9297;47.258;11.362;2024-03-29T13:40:08;0.70;;;0.70;;
5604;SDS011;9297;47.258;11.362;2024-03-29T13:42:34;0.80;;;0.80;;
5604;SDS011;9297;47.258;11.362;2024-03-29T13:45:01;0.77;;;0.77;;
5604;SDS011;9297;47.258;11.362;2024-03-29T13:47:27;0.67;;;0.67;;
5604;SDS011;9297;47.258;11.362;2024-03-29T13:49:53;0.80;;;0.80;;
5604;SDS011;9297;47.258;11.362;2024-03-29T13:52:19;1.80;;;0.77;;
5604;SDS011;9297;47.258;11.362;2024-03-29T13:54:46;0.80;;;0.80;;
5604;SDS011;9297;47.258;11.362;2024-03-29T13:57:12;1.37;;;0.80;;
5604;SDS011;9297;47.258;11.362;2024-03-29T13:59:38;0.60;;;0.60;;
5604;SDS011;9297;47.258;11.362;2024-03-29T14:02:04;0.60;;;0.60;;
5604;SDS011;9297;47.258;11.362;2024-03-29T14:04:30;0.87;;;0.87;;
5604;SDS011;9297;47.258;11.362;2024-03-29T14:06:56;0.73;;;0.73;;
5604;SDS011;9297;47.258;11.362;2024-03-29T14:09:22;0.80;;;0.80;;
5604;SDS011;9297;47.258;11.362;2024-03-29T14:11:49;0.80;;;0.80;;
5604;SDS011;9297;47.258;11.362;2024-03-29T14:14:15;0.77;;;0.77;;
5604;SDS011;9297;47.258;11.362;2024-03-29T14:16:41;0.90;;;0.90;;
5604;SDS011;9297;47.258;11.362;2024-03-29T14:19:07;0.70;;;0.70;;
5604;SDS011;9297;47.258;11.362;2024-03-29T14:21:33;0.70;;;0.70;;
5604;SDS011;9297;47.258;11.362;2024-03-29T14:23:59;0.70;;;0.70;;
5604;SDS011;9297;47.258;11.362;2024-03-29T14:26:25;2.27;;;1.10;;
5604;SDS011;9297;47.258;11.362;2024-03-29T14:28:52;0.87;;;0.87;;
5604;SDS011;9297;47.258;11.362;2024-03-29T14:31:18;3.17;;;1.00;;
5604;SDS011;9297;47.258;11.362;2024-03-29T14:33:45;2.23;;;0.80;;
5604;SDS011;9297;47.258;11.362;2024-03-29T14:36:11;1.47;;;0.90;;
5604;SDS011;9297;47.258;11.362;2024-03-29T14:38:37;1.00;;;0.90;;
5604;SDS011;9297;47.258;11.362;2024-03-29T14:41:03;3.50;;;1.03;;
5604;SDS011;9297;47.258;11.362;2024-03-29T14:43:29;3.17;;;0.97;;
5604;SDS011;9297;47.258;11.362;2024-03-29T14:45:56;4.77;;;1.23;;
5604;SDS011;9297;47.258;11.362;2024-03-29T14:48:22;3.50;;;1.10;;
5604;SDS011;9297;47.258;11.362;2024-03-29T14:50:48;7.47;;;1.47;;
5604;SDS011;9297;47.258;11.362;2024-03-29T14:53:14;8.87;;;1.57;;
5604;SDS011;9297;47.258;11.362;2024-03-29T14:55:40;9.47;;;1.70;;
5604;SDS011;9297;47.258;11.362;2024-03-29T14:58:06;4.47;;;1.57;;
5604;SDS011;9297;47.258;11.362;2024-03-29T15:00:32;6.67;;;1.73;;
5604;SDS011;9297;47.258;11.362;2024-03-29T15:02:59;5.73;;;1.83;;
5604;SDS011;9297;47.258;11.362;2024-03-29T15:05:25;8.83;;;2.03;;
5604;SDS011;9297;47.258;11.362;2024-03-29T15:07:51;14.77;;;2.57;;
5604;SDS011;9297;47.258;11.362;2024-03-29T15:10:17;18.50;;;2.47;;
5604;SDS011;9297;47.258;11.362;2024-03-29T15:12:43;6.83;;;2.23;;
5604;SDS011;9297;47.258;11.362;2024-03-29T15:15:09;14.20;;;2.83;;
5604;SDS011;9297;47.258;11.362;2024-03-29T15:17:35;9.57;;;3.20;;
5604;SDS011;9297;47.258;11.362;2024-03-29T15:20:03;21.47;;;3.93;;
5604;SDS011;9297;47.258;11.362;2024-03-29T15:22:29;19.00;;;3.27;;
5604;SDS011;9297;47.258;11.362;2024-03-29T15:24:55;14.63;;;2.83;;
5604;SDS011;9297;47.258;11.362;2024-03-29T15:27:21;19.03;;;3.70;;
5604;SDS011;9297;47.258;11.362;2024-03-29T15:29:47;24.60;;;4.33;;
5604;SDS011;9297;47.258;11.362;2024-03-29T15:32:13;18.50;;;3.97;;
5604;SDS011;9297;47.258;11.362;2024-03-29T15:34:39;24.47;;;3.83;;
5604;SDS011;9297;47.258;11.362;2024-03-29T15:37:06;21.40;;;3.80;;
5604;SDS011;9297;47.258;11.362;2024-03-29T15:39:32;27.37;;;3.30;;
5604;SDS011;9297;47.258;11.362;2024-03-29T15:41:58;26.40;;;4.40;;
5604;SDS011;9297;47.258;11.362;2024-03-29T15:44:24;27.23;;;4.73;;